createdAt,value
2017-07-14T00:00:42.313Z,14.26
2017-07-14T00:01:52.848Z,14.28
2017-07-14T00:03:03.120Z,14.16
2017-07-14T00:04:13.385Z,14.07
2017-07-14T00:05:23.674Z,14.13
2017-07-14T00:06:33.930Z,14.13
2017-07-14T00:07:44.446Z,14.08
2017-07-14T00:08:54.405Z,14.13
2017-07-14T00:10:04.677Z,14.05
2017-07-14T00:11:14.918Z,14.04
2017-07-14T00:12:25.186Z,14.05
2017-07-14T00:13:35.697Z,13.94
2017-07-14T00:14:45.971Z,14.05
2017-07-14T00:15:55.921Z,14.03
2017-07-14T00:17:05.861Z,14.04
2017-07-14T00:18:16.124Z,13.89
2017-07-14T00:19:26.688Z,14.03
2017-07-14T00:20:36.961Z,14.03
2017-07-14T00:21:47.232Z,14.01
2017-07-14T00:22:57.496Z,13.95
2017-07-14T00:24:07.442Z,13.97
2017-07-14T00:25:18.011Z,13.97
2017-07-14T00:26:27.962Z,14.05
2017-07-14T00:27:38.236Z,13.98
2017-07-14T00:28:48.486Z,13.97
2017-07-14T00:29:58.742Z,14
2017-07-14T00:31:08.640Z,14
2017-07-14T00:32:18.905Z,14.04
2017-07-14T00:33:29.164Z,13.95
2017-07-14T00:34:39.437Z,13.93
2017-07-14T00:35:49.711Z,13.91
2017-07-14T00:37:00.237Z,13.94
2017-07-14T00:38:10.501Z,13.93
2017-07-14T00:39:20.444Z,13.87
2017-07-14T00:40:30.403Z,13.85
2017-07-14T00:41:40.675Z,13.86
2017-07-14T00:42:51.434Z,13.87
2017-07-14T00:44:01.718Z,13.86
2017-07-14T00:45:11.989Z,13.91
2017-07-14T00:46:22.243Z,13.78
2017-07-14T00:47:32.500Z,13.83
2017-07-14T00:48:42.706Z,13.85
2017-07-14T00:49:52.656Z,13.82
2017-07-14T00:51:02.906Z,13.85
2017-07-14T00:52:13.175Z,13.87
2017-07-14T00:53:23.118Z,13.85
2017-07-14T00:54:33.645Z,13.83
2017-07-14T00:55:43.595Z,13.91
2017-07-14T00:56:53.849Z,13.76
2017-07-14T00:58:04.121Z,13.85
2017-07-14T00:59:14.074Z,13.73
2017-07-14T01:00:24.603Z,13.75
2017-07-14T01:01:34.859Z,13.73
2017-07-14T01:02:44.801Z,13.76
2017-07-14T01:03:54.428Z,13.7
2017-07-14T01:05:04.402Z,13.7
2017-07-14T01:06:14.993Z,13.76
2017-07-14T01:07:25.281Z,13.78
2017-07-14T01:08:34.914Z,13.75
2017-07-14T01:09:45.183Z,13.62
2017-07-14T01:10:55.455Z,13.61
2017-07-14T01:12:05.983Z,13.67
2017-07-14T01:13:16.247Z,13.65
2017-07-14T01:14:26.507Z,13.7
2017-07-14T01:15:36.767Z,13.62
2017-07-14T01:16:46.727Z,13.65
2017-07-14T01:17:56.932Z,13.62
2017-07-14T01:19:07.203Z,13.65
2017-07-14T01:20:17.467Z,13.65
2017-07-14T01:21:27.741Z,13.65
2017-07-14T01:22:38.012Z,13.54
2017-07-14T01:23:47.887Z,13.6
2017-07-14T01:24:57.824Z,13.61
2017-07-14T01:26:08.085Z,13.58
2017-07-14T01:27:18.365Z,13.61
2017-07-14T01:28:28.625Z,13.58
2017-07-14T01:29:39.138Z,13.57
2017-07-14T01:30:48.460Z,13.54
2017-07-14T01:31:58.741Z,13.5
2017-07-14T01:33:08.997Z,13.55
2017-07-14T01:34:19.258Z,13.52
2017-07-14T01:35:29.454Z,13.54
2017-07-14T01:36:39.717Z,13.54
2017-07-14T01:37:49.656Z,13.52
2017-07-14T01:38:59.915Z,13.57
2017-07-14T01:40:10.172Z,13.57
2017-07-14T01:41:20.788Z,13.55
2017-07-14T01:42:31.059Z,13.5
2017-07-14T01:43:41.034Z,13.52
2017-07-14T01:44:50.983Z,13.46
2017-07-14T01:46:01.457Z,13.55
2017-07-14T01:47:11.973Z,13.49
2017-07-14T01:48:22.233Z,13.39
2017-07-14T01:49:32.510Z,13.5
2017-07-14T01:50:42.786Z,13.54
2017-07-14T01:51:53.073Z,13.49
2017-07-14T01:53:03.287Z,13.45
2017-07-14T01:54:13.562Z,13.43
2017-07-14T01:55:23.821Z,13.46
2017-07-14T01:56:34.099Z,13.46
2017-07-14T01:57:44.368Z,13.43
2017-07-14T01:58:54.896Z,13.46
2017-07-14T02:00:05.163Z,13.46
2017-07-14T02:01:15.415Z,13.46
2017-07-14T02:02:25.692Z,13.49
2017-07-14T02:03:35.350Z,13.47
2017-07-14T02:04:45.913Z,13.46
2017-07-14T02:05:56.176Z,13.46
2017-07-14T02:07:06.452Z,13.49
2017-07-14T02:08:16.703Z,13.46
2017-07-14T02:09:26.671Z,13.4
2017-07-14T02:10:37.189Z,13.42
2017-07-14T02:11:47.450Z,13.43
2017-07-14T02:12:57.419Z,13.46
2017-07-14T02:14:07.361Z,13.49
2017-07-14T02:15:17.303Z,13.49
2017-07-14T02:16:27.822Z,13.43
2017-07-14T02:17:37.781Z,13.46
2017-07-14T02:18:48.049Z,13.43
2017-07-14T02:19:58.312Z,13.42
2017-07-14T02:21:08.270Z,13.4
2017-07-14T02:22:18.833Z,13.42
2017-07-14T02:23:28.765Z,13.43
2017-07-14T02:24:38.724Z,13.33
2017-07-14T02:25:48.988Z,13.31
2017-07-14T02:26:59.269Z,13.39
2017-07-14T02:28:09.831Z,13.33
2017-07-14T02:29:20.092Z,13.3
2017-07-14T02:30:30.338Z,13.36
2017-07-14T02:31:40.609Z,13.31
2017-07-14T02:32:50.870Z,13.36
2017-07-14T02:34:01.391Z,13.33
2017-07-14T02:35:11.666Z,13.26
2017-07-14T02:36:21.937Z,13.28
2017-07-14T02:37:32.219Z,13.31
2017-07-14T02:38:42.175Z,13.31
2017-07-14T02:39:52.388Z,13.27
2017-07-14T02:41:02.337Z,13.3
2017-07-14T02:42:12.599Z,13.2
2017-07-14T02:43:22.557Z,13.21
2017-07-14T02:44:32.825Z,13.17
2017-07-14T02:45:43.343Z,13.26
2017-07-14T02:46:53.618Z,13.21
2017-07-14T02:48:03.887Z,13.2
2017-07-14T02:49:14.138Z,13.26
2017-07-14T02:50:24.443Z,13.27
2017-07-14T02:51:34.662Z,13.27
2017-07-14T02:52:44.915Z,13.21
2017-07-14T02:53:54.872Z,13.27
2017-07-14T02:55:05.145Z,13.17
2017-07-14T02:56:15.408Z,13.21
2017-07-14T02:57:25.288Z,13.26
2017-07-14T02:58:35.566Z,13.21
2017-07-14T02:59:44.891Z,13.21
2017-07-14T03:00:54.856Z,13.19
2017-07-14T03:02:05.111Z,13.08
2017-07-14T03:03:15.296Z,13.12
2017-07-14T03:04:25.252Z,13.11
2017-07-14T03:05:35.214Z,12.99
2017-07-14T03:06:45.470Z,13.13
2017-07-14T03:07:55.742Z,13.06
2017-07-14T03:09:06.246Z,13.06
2017-07-14T03:10:16.210Z,13.06
2017-07-14T03:11:26.182Z,13.12
2017-07-14T03:12:36.123Z,13.06
2017-07-14T03:13:46.385Z,13.13
2017-07-14T03:14:56.905Z,13.12
2017-07-14T03:16:06.851Z,13.12
2017-07-14T03:17:17.100Z,13.13
2017-07-14T03:18:27.369Z,13.12
2017-07-14T03:19:37.625Z,13.11
2017-07-14T03:20:48.190Z,13.13
2017-07-14T03:21:58.144Z,13.26
2017-07-14T03:23:08.103Z,13.12
2017-07-14T03:24:18.369Z,13.09
2017-07-14T03:25:28.321Z,13.13
2017-07-14T03:26:38.832Z,13.13
2017-07-14T03:27:49.093Z,13.12
2017-07-14T03:28:58.732Z,13.09
2017-07-14T03:30:08.997Z,13.09
2017-07-14T03:31:19.280Z,13.12
2017-07-14T03:32:29.799Z,13.12
2017-07-14T03:33:40.058Z,13.11
2017-07-14T03:34:50.306Z,13.21
2017-07-14T03:35:59.957Z,13.21
2017-07-14T03:37:09.896Z,13.23
2017-07-14T03:38:20.401Z,13.16
2017-07-14T03:39:30.668Z,13.21
2017-07-14T03:40:40.637Z,13.21
2017-07-14T03:41:50.589Z,13.28
2017-07-14T03:43:00.870Z,13.17
2017-07-14T03:44:11.401Z,13.2
2017-07-14T03:45:21.699Z,13.24
2017-07-14T03:46:31.954Z,13.31
2017-07-14T03:47:41.927Z,13.31
2017-07-14T03:48:51.885Z,13.31
2017-07-14T03:50:02.397Z,13.26
2017-07-14T03:51:12.338Z,13.28
2017-07-14T03:52:22.628Z,13.31
2017-07-14T03:53:32.883Z,13.36
2017-07-14T03:54:42.842Z,13.31
2017-07-14T03:55:53.355Z,13.36
2017-07-14T03:57:03.303Z,13.37
2017-07-14T03:58:13.579Z,13.45
2017-07-14T03:59:23.860Z,13.45
2017-07-14T04:00:34.142Z,13.45
2017-07-14T04:01:44.361Z,13.4
2017-07-14T04:02:54.322Z,13.39
2017-07-14T04:04:04.583Z,13.31
2017-07-14T04:05:14.875Z,13.37
2017-07-14T04:06:25.154Z,13.36
2017-07-14T04:07:35.038Z,13.36
2017-07-14T04:08:45.006Z,13.43
2017-07-14T04:09:55.280Z,13.31
2017-07-14T04:11:04.915Z,13.3
2017-07-14T04:12:15.174Z,13.33
2017-07-14T04:13:25.700Z,13.33
2017-07-14T04:14:35.964Z,13.27
2017-07-14T04:15:45.907Z,13.28
2017-07-14T04:16:55.847Z,13.3
2017-07-14T04:18:06.114Z,13.33
2017-07-14T04:19:16.621Z,13.43
2017-07-14T04:20:26.887Z,13.42
2017-07-14T04:21:37.160Z,13.4
2017-07-14T04:22:47.404Z,13.46
2017-07-14T04:23:57.366Z,13.43
2017-07-14T04:25:07.587Z,13.45
2017-07-14T04:26:17.860Z,13.45
2017-07-14T04:27:28.138Z,13.49
2017-07-14T04:28:38.408Z,13.5
2017-07-14T04:29:48.365Z,13.47
2017-07-14T04:30:58.890Z,13.47
2017-07-14T04:32:09.167Z,13.5
2017-07-14T04:33:19.442Z,13.54
2017-07-14T04:34:29.399Z,13.54
2017-07-14T04:35:39.670Z,13.64
2017-07-14T04:36:49.932Z,13.64
2017-07-14T04:38:00.186Z,13.75
2017-07-14T04:39:10.459Z,13.86
2017-07-14T04:40:20.398Z,13.86
2017-07-14T04:41:30.334Z,13.95
2017-07-14T04:42:40.850Z,14
2017-07-14T04:43:51.119Z,14.12
2017-07-14T04:45:01.400Z,14.22
2017-07-14T04:46:11.350Z,14.28
2017-07-14T04:47:21.640Z,14.34
2017-07-14T04:48:32.174Z,14.41
2017-07-14T04:49:42.121Z,14.56
2017-07-14T04:50:52.417Z,14.52
2017-07-14T04:52:02.694Z,14.66
2017-07-14T04:53:12.639Z,14.62
2017-07-14T04:54:23.167Z,14.58
2017-07-14T04:55:33.432Z,14.59
2017-07-14T04:56:43.690Z,14.53
2017-07-14T04:57:53.951Z,14.56
2017-07-14T04:59:03.907Z,14.41
2017-07-14T05:00:14.138Z,14.41
2017-07-14T05:01:24.396Z,14.41
2017-07-14T05:02:34.679Z,14.45
2017-07-14T05:03:44.933Z,14.44
2017-07-14T05:04:54.890Z,14.55
2017-07-14T05:06:05.452Z,14.53
2017-07-14T05:07:15.719Z,14.49
2017-07-14T05:08:25.682Z,14.53
2017-07-14T05:09:35.648Z,14.52
2017-07-14T05:10:45.629Z,14.52
2017-07-14T05:11:56.157Z,14.45
2017-07-14T05:13:06.449Z,14.55
2017-07-14T05:14:16.731Z,14.53
2017-07-14T05:15:26.693Z,14.58
2017-07-14T05:16:36.971Z,14.48
2017-07-14T05:17:47.229Z,14.38
2017-07-14T05:18:57.187Z,14.41
2017-07-14T05:20:07.461Z,14.58
2017-07-14T05:21:17.738Z,14.48
2017-07-14T05:22:27.998Z,14.58
2017-07-14T05:23:38.186Z,14.66
2017-07-14T05:24:48.434Z,14.74
2017-07-14T05:25:58.928Z,14.89
2017-07-14T05:27:08.871Z,14.93
2017-07-14T05:28:18.843Z,14.96
2017-07-14T05:29:29.075Z,15.02
2017-07-14T05:30:39.338Z,15.12
2017-07-14T05:31:49.836Z,15.19
2017-07-14T05:33:00.113Z,15.27
2017-07-14T05:34:10.377Z,15.3
2017-07-14T05:35:20.594Z,15.35
2017-07-14T05:36:30.870Z,15.36
2017-07-14T05:37:41.149Z,15.32
2017-07-14T05:38:51.097Z,15.51
2017-07-14T05:40:01.038Z,15.54
2017-07-14T05:41:11.235Z,15.51
2017-07-14T05:42:21.505Z,15.47
2017-07-14T05:43:31.495Z,15.52
2017-07-14T05:44:41.787Z,15.5
2017-07-14T05:45:51.744Z,15.51
2017-07-14T05:47:01.962Z,15.5
2017-07-14T05:48:12.271Z,15.52
2017-07-14T05:49:22.551Z,15.57
2017-07-14T05:50:32.515Z,15.6
2017-07-14T05:51:43.108Z,15.67
2017-07-14T05:52:53.653Z,15.63
2017-07-14T05:54:03.935Z,15.7
2017-07-14T05:55:14.231Z,15.76
2017-07-14T05:56:24.572Z,15.8
2017-07-14T05:57:34.557Z,15.81
2017-07-14T05:58:45.083Z,15.81
2017-07-14T05:59:55.059Z,15.99
2017-07-14T06:01:05.029Z,16.05
2017-07-14T06:02:15.348Z,16.18
2017-07-14T06:03:25.641Z,16.25
2017-07-14T06:04:35.590Z,16.32
2017-07-14T06:05:45.545Z,16.29
2017-07-14T06:06:55.835Z,16.43
2017-07-14T06:08:06.119Z,16.44
2017-07-14T06:09:16.373Z,16.44
2017-07-14T06:10:26.572Z,16.36
2017-07-14T06:11:36.854Z,16.32
2017-07-14T06:12:46.505Z,16.32
2017-07-14T06:13:56.808Z,16.32
2017-07-14T06:15:07.102Z,16.32
2017-07-14T06:16:17.652Z,16.26
2017-07-14T06:17:27.937Z,16.22
2017-07-14T06:18:38.219Z,16.25
2017-07-14T06:19:48.492Z,16.24
2017-07-14T06:20:58.766Z,16.24
2017-07-14T06:22:09.296Z,16.22
2017-07-14T06:23:19.555Z,16.13
2017-07-14T06:24:29.817Z,16.22
2017-07-14T06:25:40.096Z,16.21
2017-07-14T06:26:50.374Z,16.22
2017-07-14T06:28:00.586Z,16.08
2017-07-14T06:29:10.864Z,16.12
2017-07-14T06:30:21.136Z,16.06
2017-07-14T06:31:31.423Z,16.03
2017-07-14T06:32:41.695Z,16.09
2017-07-14T06:33:52.262Z,15.9
2017-07-14T06:35:02.213Z,15.88
2017-07-14T06:36:12.502Z,15.81
2017-07-14T06:37:22.450Z,15.85
2017-07-14T06:38:32.733Z,15.87
2017-07-14T06:39:42.929Z,15.85
2017-07-14T06:40:53.215Z,15.94
2017-07-14T06:42:03.495Z,16.03
2017-07-14T06:43:13.755Z,16.09
2017-07-14T06:44:23.392Z,16.1
2017-07-14T06:45:34.039Z,16.09
2017-07-14T06:46:44.386Z,16.17
2017-07-14T06:47:54.660Z,16.24
2017-07-14T06:49:04.620Z,16.28
2017-07-14T06:50:14.577Z,16.34
2017-07-14T06:51:25.170Z,16.39
2017-07-14T06:52:35.420Z,16.46
2017-07-14T06:53:45.374Z,16.43
2017-07-14T06:54:55.628Z,16.46
2017-07-14T06:56:05.901Z,16.44
2017-07-14T06:57:16.484Z,16.47
2017-07-14T06:58:26.740Z,16.55
2017-07-14T06:59:37.046Z,16.59
2017-07-14T07:00:46.988Z,16.77
2017-07-14T07:01:56.943Z,16.8
2017-07-14T07:03:07.446Z,16.69
2017-07-14T07:04:17.418Z,16.72
2017-07-14T07:05:27.697Z,16.65
2017-07-14T07:06:37.981Z,16.68
2017-07-14T07:07:47.955Z,16.65
2017-07-14T07:08:57.838Z,16.66
2017-07-14T07:10:08.107Z,16.69
2017-07-14T07:11:18.386Z,16.66
2017-07-14T07:12:28.694Z,16.8
2017-07-14T07:13:38.951Z,16.8
2017-07-14T07:14:49.499Z,16.77
2017-07-14T07:15:59.822Z,16.79
2017-07-14T07:17:09.790Z,16.86
2017-07-14T07:18:20.310Z,16.82
2017-07-14T07:19:30.320Z,16.95
2017-07-14T07:20:40.549Z,16.95
2017-07-14T07:21:50.817Z,17.16
2017-07-14T07:23:01.097Z,16.99
2017-07-14T07:24:10.725Z,17.12
2017-07-14T07:25:20.692Z,17.09
2017-07-14T07:26:30.942Z,17.16
2017-07-14T07:27:40.913Z,17.04
2017-07-14T07:28:51.199Z,17.09
2017-07-14T07:30:01.463Z,17.27
2017-07-14T07:31:11.758Z,17.32
2017-07-14T07:32:21.960Z,17.46
2017-07-14T07:33:31.926Z,17.53
2017-07-14T07:34:42.207Z,17.63
2017-07-14T07:35:52.481Z,17.69
2017-07-14T07:37:02.759Z,17.73
2017-07-14T07:38:13.297Z,17.75
2017-07-14T07:39:23.261Z,17.87
2017-07-14T07:40:33.541Z,17.88
2017-07-14T07:41:43.835Z,17.86
2017-07-14T07:42:53.808Z,17.84
2017-07-14T07:44:04.352Z,17.82
2017-07-14T07:45:14.650Z,17.87
2017-07-14T07:46:24.946Z,17.88
2017-07-14T07:47:35.250Z,17.93
2017-07-14T07:48:45.572Z,17.88
2017-07-14T07:49:55.785Z,17.84
2017-07-14T07:51:05.432Z,17.9
2017-07-14T07:52:15.701Z,17.9
2017-07-14T07:53:26.003Z,17.95
2017-07-14T07:54:35.982Z,17.91
2017-07-14T07:55:46.517Z,18.03
2017-07-14T07:56:56.824Z,18
2017-07-14T07:58:06.824Z,17.95
2017-07-14T07:59:17.020Z,18.08
2017-07-14T08:00:27.316Z,18.12
2017-07-14T08:01:37.852Z,18.12
2017-07-14T08:02:47.824Z,18.12
2017-07-14T08:03:58.090Z,18.06
2017-07-14T08:05:08.047Z,18.16
2017-07-14T08:06:18.005Z,18.06
2017-07-14T08:07:28.590Z,18.12
2017-07-14T08:08:38.846Z,18.05
2017-07-14T08:09:48.804Z,18.08
2017-07-14T08:10:59.077Z,18.13
2017-07-14T08:12:09.360Z,18.08
2017-07-14T08:13:19.891Z,18.15
2017-07-14T08:14:30.167Z,18.23
2017-07-14T08:15:40.465Z,18.3
2017-07-14T08:16:50.735Z,18.37
2017-07-14T08:18:01.025Z,18.24
2017-07-14T08:19:11.240Z,18.18
2017-07-14T08:20:21.233Z,18.26
2017-07-14T08:21:31.501Z,18.12
2017-07-14T08:22:41.789Z,18.21
2017-07-14T08:23:51.462Z,18.24
2017-07-14T08:25:01.980Z,18.28
2017-07-14T08:26:12.272Z,18.24
2017-07-14T08:27:22.570Z,18.18
2017-07-14T08:28:32.861Z,18.27
2017-07-14T08:29:42.920Z,18.28
2017-07-14T08:30:53.153Z,18.15
2017-07-14T08:32:03.454Z,18.11
2017-07-14T08:33:13.976Z,18.21
2017-07-14T08:34:24.272Z,18.23
2017-07-14T08:35:34.551Z,18.15
2017-07-14T08:36:45.074Z,18.18
2017-07-14T08:37:55.385Z,18.09
2017-07-14T08:39:05.352Z,18.12
2017-07-14T08:40:15.318Z,18.13
2017-07-14T08:41:25.616Z,18.06
2017-07-14T08:42:36.149Z,18.12
2017-07-14T08:43:46.432Z,18.16
2017-07-14T08:44:56.412Z,18.23
2017-07-14T08:46:06.431Z,18.28
2017-07-14T08:47:16.413Z,18.53
2017-07-14T08:48:26.949Z,18.73
2017-07-14T08:49:37.227Z,18.79
2017-07-14T08:50:47.492Z,18.83
2017-07-14T08:51:57.770Z,18.86
2017-07-14T08:53:07.438Z,19.07
2017-07-14T08:54:17.990Z,19.22
2017-07-14T08:55:28.309Z,19.38
2017-07-14T08:56:38.285Z,19.75
2017-07-14T08:57:48.594Z,19.9
2017-07-14T08:58:58.249Z,20.15
2017-07-14T09:00:08.827Z,20.63
2017-07-14T09:01:19.099Z,20.93
2017-07-14T09:02:29.086Z,21.03
2017-07-14T09:03:39.041Z,21.25
2017-07-14T09:04:49.338Z,21.15
2017-07-14T09:05:59.899Z,21.29
2017-07-14T09:07:10.168Z,21.54
2017-07-14T09:08:20.150Z,21.84
2017-07-14T09:09:30.465Z,21.81
2017-07-14T09:10:40.102Z,21.54
2017-07-14T09:11:50.308Z,21.4
2017-07-14T09:13:00.282Z,21.5
2017-07-14T09:14:10.240Z,21.44
2017-07-14T09:15:20.573Z,21.58
2017-07-14T09:16:30.866Z,21.78
2017-07-14T09:17:41.082Z,22.15
2017-07-14T09:18:51.368Z,22.53
2017-07-14T09:20:01.378Z,22.51
2017-07-14T09:21:11.661Z,22.1
2017-07-14T09:22:21.629Z,21.88
2017-07-14T09:23:32.190Z,21.77
2017-07-14T09:24:42.169Z,21.99
2017-07-14T09:25:52.461Z,22.34
2017-07-14T09:27:02.434Z,22.07
2017-07-14T09:28:12.717Z,21.92
2017-07-14T09:29:22.934Z,21.88
2017-07-14T09:30:32.901Z,22.04
2017-07-14T09:31:42.878Z,22.18
2017-07-14T09:32:53.169Z,22.52
2017-07-14T09:34:03.446Z,22.88
2017-07-14T09:35:13.654Z,23.25
2017-07-14T09:36:23.326Z,23.34
2017-07-14T09:37:33.617Z,23.18
2017-07-14T09:38:43.903Z,22.67
2017-07-14T09:39:54.197Z,22.26
2017-07-14T09:41:04.751Z,22.01
2017-07-14T09:42:15.052Z,22.1
2017-07-14T09:43:25.331Z,21.99
2017-07-14T09:44:35.305Z,22.28
2017-07-14T09:45:45.586Z,22.41
2017-07-14T09:46:56.125Z,22.55
2017-07-14T09:48:06.089Z,22.36
2017-07-14T09:49:16.387Z,22.04
2017-07-14T09:50:26.343Z,21.74
2017-07-14T09:51:36.627Z,21.44
2017-07-14T09:52:47.152Z,21.3
2017-07-14T09:53:57.161Z,21.17
2017-07-14T09:55:07.460Z,21.19
2017-07-14T09:56:17.788Z,21.03
2017-07-14T09:57:28.066Z,21.03
2017-07-14T09:58:38.586Z,21.04
2017-07-14T09:59:48.260Z,21.22
2017-07-14T10:00:58.581Z,21.3
2017-07-14T10:02:08.864Z,21.25
2017-07-14T10:03:19.157Z,21.15
2017-07-14T10:04:29.700Z,21.04
2017-07-14T10:05:39.971Z,21.03
2017-07-14T10:06:50.265Z,20.86
2017-07-14T10:08:00.562Z,20.74
2017-07-14T10:09:10.843Z,20.63
2017-07-14T10:10:21.386Z,20.52
2017-07-14T10:11:31.364Z,20.44
2017-07-14T10:12:41.639Z,20.33
2017-07-14T10:13:51.283Z,20.4
2017-07-14T10:15:01.569Z,20.22
2017-07-14T10:16:12.126Z,20.12
2017-07-14T10:17:22.410Z,20.03
2017-07-14T10:18:32.674Z,20.07
2017-07-14T10:19:42.950Z,19.99
2017-07-14T10:20:53.240Z,19.96
2017-07-14T10:22:03.789Z,19.89
2017-07-14T10:23:13.757Z,19.81
2017-07-14T10:24:23.715Z,19.81
2017-07-14T10:25:33.681Z,19.87
2017-07-14T10:26:43.951Z,19.92
2017-07-14T10:27:54.547Z,20
2017-07-14T10:29:04.820Z,19.93
2017-07-14T10:30:15.115Z,19.96
2017-07-14T10:31:25.394Z,20.02
2017-07-14T10:32:35.684Z,20.3
2017-07-14T10:33:46.201Z,20.39
2017-07-14T10:34:56.479Z,20.53
2017-07-14T10:36:06.426Z,20.44
2017-07-14T10:37:16.732Z,20.52
2017-07-14T10:38:27.039Z,20.55
2017-07-14T10:39:37.266Z,20.27
2017-07-14T10:40:46.911Z,20.11
2017-07-14T10:41:57.200Z,20.14
2017-07-14T10:43:07.155Z,20.22
2017-07-14T10:44:16.807Z,20.4
2017-07-14T10:45:27.367Z,20.55
2017-07-14T10:46:37.707Z,20.6
2017-07-14T10:47:47.361Z,20.74
2017-07-14T10:48:57.660Z,20.73
2017-07-14T10:50:07.622Z,21.11
2017-07-14T10:51:18.157Z,21.32
2017-07-14T10:52:28.432Z,21.58
2017-07-14T10:53:38.713Z,21.48
2017-07-14T10:54:48.831Z,21.5
2017-07-14T10:55:59.105Z,21.68
2017-07-14T10:57:09.337Z,21.78
2017-07-14T10:58:19.611Z,21.99
2017-07-14T10:59:29.586Z,22.28
2017-07-14T11:00:39.556Z,22.21
2017-07-14T11:01:49.875Z,22
2017-07-14T11:03:00.433Z,22.06
2017-07-14T11:04:10.723Z,22
2017-07-14T11:05:20.673Z,21.81
2017-07-14T11:06:30.644Z,21.85
2017-07-14T11:07:40.929Z,22
2017-07-14T11:08:51.469Z,21.89
2017-07-14T11:10:01.431Z,22.01
2017-07-14T11:11:11.722Z,22.43
2017-07-14T11:12:22.006Z,22.83
2017-07-14T11:13:32.279Z,23.2
2017-07-14T11:14:42.183Z,23.64
2017-07-14T11:15:51.530Z,24.03
2017-07-14T11:17:01.830Z,24.46
2017-07-14T11:18:12.129Z,24.82
2017-07-14T11:19:21.787Z,25.22
2017-07-14T11:20:32.371Z,25.48
2017-07-14T11:21:42.651Z,25.66
2017-07-14T11:22:52.934Z,25.86
2017-07-14T11:24:03.202Z,25.71
2017-07-14T11:25:13.482Z,25.33
2017-07-14T11:26:24.037Z,25.37
2017-07-14T11:27:34.337Z,25.77
2017-07-14T11:28:44.671Z,26.01
2017-07-14T11:29:54.955Z,25.98
2017-07-14T11:31:05.289Z,25.63
2017-07-14T11:32:15.852Z,25.3
2017-07-14T11:33:25.855Z,24.86
2017-07-14T11:34:36.181Z,24.48
2017-07-14T11:35:46.166Z,24.51
2017-07-14T11:36:56.449Z,24.5
2017-07-14T11:38:06.717Z,24.68
2017-07-14T11:39:16.696Z,25.25
2017-07-14T11:40:26.656Z,25.85
2017-07-14T11:41:36.631Z,26.44
2017-07-14T11:42:46.919Z,27.07
2017-07-14T11:43:57.445Z,27.29
2017-07-14T11:45:07.737Z,27.34
2017-07-14T11:46:18.022Z,27.2
2017-07-14T11:47:28.318Z,26.61
2017-07-14T11:48:38.293Z,26.13
2017-07-14T11:49:48.833Z,25.96
2017-07-14T11:50:59.122Z,25.37
2017-07-14T11:52:09.443Z,25.16
2017-07-14T11:53:19.423Z,24.88
2017-07-14T11:54:29.411Z,24.97
2017-07-14T11:55:39.943Z,25.36
2017-07-14T11:56:50.241Z,25.7
2017-07-14T11:58:00.518Z,25.95
2017-07-14T11:59:10.502Z,26.18
2017-07-14T12:00:20.769Z,26.48
2017-07-14T12:01:30.685Z,26.83
2017-07-14T12:02:40.656Z,27.26
2017-07-14T12:03:50.925Z,27.37
2017-07-14T12:05:00.893Z,27.2
2017-07-14T12:06:11.166Z,27.03
2017-07-14T12:07:21.851Z,26.74
2017-07-14T12:08:32.141Z,26.78
2017-07-14T12:09:42.418Z,26.93
2017-07-14T12:10:52.063Z,26.81
2017-07-14T12:12:02.037Z,26.55
2017-07-14T12:13:12.265Z,26.18
2017-07-14T12:14:22.521Z,25.56
2017-07-14T12:15:32.807Z,25.36
2017-07-14T12:16:42.480Z,24.66
2017-07-14T12:17:52.447Z,24.22
2017-07-14T12:19:02.346Z,24.07
2017-07-14T12:20:12.297Z,24.18
2017-07-14T12:21:22.253Z,24.14
2017-07-14T12:22:31.897Z,23.7
2017-07-14T12:23:42.175Z,23.26
2017-07-14T12:24:52.375Z,23.28
2017-07-14T12:26:02.330Z,23.4
2017-07-14T12:27:12.607Z,23.69
2017-07-14T12:28:22.884Z,24.19
2017-07-14T12:29:33.172Z,24.53
2017-07-14T12:30:43.073Z,24.92
2017-07-14T12:31:53.037Z,25.49
2017-07-14T12:33:03.331Z,26.04
2017-07-14T12:34:13.635Z,26.6
2017-07-14T12:35:23.929Z,26.61
2017-07-14T12:36:34.144Z,26.13
2017-07-14T12:37:43.800Z,25.71
2017-07-14T12:38:54.080Z,25.49
2017-07-14T12:40:04.355Z,25.19
2017-07-14T12:41:14.024Z,24.78
2017-07-14T12:42:24.596Z,24.56
2017-07-14T12:43:34.879Z,24.56
2017-07-14T12:44:44.857Z,24.58
2017-07-14T12:45:54.826Z,24.66
2017-07-14T12:47:05.110Z,24.55
2017-07-14T12:48:15.705Z,24.21
2017-07-14T12:49:26.011Z,24.22
2017-07-14T13:00:18.787Z,25.43
2017-07-14T13:01:28.742Z,26.07
2017-07-14T13:02:38.706Z,26.45
2017-07-14T13:03:48.677Z,26.73
2017-07-14T13:04:58.257Z,26.68
2017-07-14T13:06:08.542Z,26.59
2017-07-14T13:07:18.842Z,26.06
2017-07-14T13:08:29.132Z,25.78
2017-07-14T13:09:39.415Z,25.41
2017-07-14T13:10:49.958Z,25.07
2017-07-14T13:12:00.251Z,24.77
2017-07-14T13:13:09.913Z,24.65
2017-07-14T13:14:20.190Z,24.65
2017-07-14T13:15:29.834Z,24.53
2017-07-14T13:16:40.392Z,24.77
2017-07-14T13:17:50.674Z,24.84
2017-07-14T13:19:00.957Z,24.84
2017-07-14T13:20:11.221Z,24.46
2017-07-14T13:21:21.203Z,24.31
2017-07-14T13:22:31.989Z,24.75
2017-07-14T13:23:42.280Z,25.03
2017-07-14T13:24:52.273Z,25.03
2017-07-14T13:26:02.552Z,24.97
2017-07-14T13:27:12.837Z,24.88
2017-07-14T13:28:23.375Z,24.84
2017-07-14T13:29:33.663Z,24.89
2017-07-14T13:30:43.941Z,25.04
2017-07-14T13:31:53.908Z,25.36
2017-07-14T13:33:04.201Z,25.39
2017-07-14T13:34:14.411Z,25.09
2017-07-14T13:35:24.703Z,24.78
2017-07-14T13:36:34.696Z,24.68
2017-07-14T13:37:44.975Z,24.24
2017-07-14T13:38:54.973Z,24.1
2017-07-14T13:40:05.506Z,24.14
2017-07-14T13:41:15.484Z,24.19
2017-07-14T13:42:25.755Z,24.34
2017-07-14T13:43:36.041Z,24.51
2017-07-14T13:44:46.004Z,24.82
2017-07-14T13:45:56.544Z,24.89
2017-07-14T13:47:06.508Z,25.46
2017-07-14T13:48:16.800Z,25.74
2017-07-14T13:49:26.452Z,25.68
2017-07-14T13:50:36.424Z,25.7
2017-07-14T13:51:46.970Z,25.62
2017-07-14T13:52:57.258Z,25.74
2017-07-14T13:54:07.216Z,25.78
2017-07-14T13:55:17.497Z,25.89
2017-07-14T13:56:27.769Z,25.96
2017-07-14T13:57:38.321Z,26.11
2017-07-14T13:58:48.277Z,26.31
2017-07-14T13:59:58.249Z,26.18
2017-07-14T14:01:08.516Z,25.93
2017-07-14T14:02:18.498Z,25.43
2017-07-14T14:03:28.423Z,25.16
2017-07-14T14:04:38.722Z,24.84
2017-07-14T14:05:48.671Z,24.69
2017-07-14T14:06:58.661Z,24.78
2017-07-14T14:08:08.612Z,25.06
2017-07-14T14:09:18.506Z,25.21
2017-07-14T14:10:28.822Z,25.59
2017-07-14T14:11:39.144Z,26.16
2017-07-14T14:12:49.110Z,26.82
2017-07-14T14:13:59.410Z,26.56
2017-07-14T14:15:09.339Z,26.3
2017-07-14T14:16:19.299Z,25.98
2017-07-14T14:17:29.601Z,26.1
2017-07-14T14:18:39.876Z,26.22
2017-07-14T14:19:49.854Z,26.01
2017-07-14T14:21:00.405Z,25.92
2017-07-14T14:22:10.688Z,26.08
2017-07-14T14:23:20.975Z,26.31
2017-07-14T14:24:30.949Z,26.73
2017-07-14T14:25:40.919Z,27.33
2017-07-14T14:26:51.446Z,27.79
2017-07-14T14:28:01.423Z,27.76
2017-07-14T14:29:11.385Z,27.71
2017-07-14T14:30:21.378Z,27.61
2017-07-14T14:31:31.673Z,27.73
2017-07-14T14:32:41.881Z,27.81
2017-07-14T14:33:51.526Z,28.34
2017-07-14T14:35:01.837Z,28.64
2017-07-14T14:36:11.797Z,28.92
2017-07-14T14:37:21.768Z,29.4
2017-07-14T14:38:32.331Z,29.76
2017-07-14T14:39:42.609Z,30.16
2017-07-14T14:40:52.603Z,30.2
2017-07-14T14:42:02.909Z,29.57
2017-07-14T14:43:12.885Z,29.16
2017-07-14T14:44:22.798Z,28.71
2017-07-14T14:45:33.107Z,28.38
2017-07-14T14:46:43.399Z,27.94
2017-07-14T14:47:53.679Z,27.57
2017-07-14T14:49:03.345Z,27.45
2017-07-14T14:50:13.905Z,27.52
2017-07-14T14:51:23.777Z,27.76
2017-07-14T14:52:33.735Z,27.23
2017-07-14T14:53:44.032Z,26.81
2017-07-14T14:54:54.002Z,26.66
2017-07-14T14:56:04.273Z,26.96
2017-07-14T14:57:13.933Z,26.91
2017-07-14T14:58:23.892Z,27.04
2017-07-14T14:59:33.839Z,27.18
2017-07-14T15:00:44.351Z,27.29
2017-07-14T15:01:54.884Z,26.73
2017-07-14T15:03:05.168Z,26.13
2017-07-14T15:04:15.492Z,25.7
2017-07-14T15:05:25.453Z,25.3
2017-07-14T15:06:35.750Z,25.12
2017-07-14T15:07:46.295Z,25.04
2017-07-14T15:08:56.569Z,24.88
2017-07-14T15:10:06.877Z,25.06
2017-07-14T15:11:16.846Z,25.04
2017-07-14T15:12:27.129Z,24.86
2017-07-14T15:13:37.672Z,24.75
2017-07-14T15:14:47.989Z,24.85
2017-07-14T15:15:57.955Z,24.86
2017-07-14T15:17:07.914Z,25.03